sensor_id;sensor_type;location;lat;lon;timestamp;pressure;altitude;pressure_sealevel;temperature;humidity
22582;BME280;47125;48.542;9.052;2023-02-19T00:01:00;96561.00;;;11.39;72.14
22582;BME280;47125;48.542;9.052;2023-02-19T00:11:05;96548.81;;;11.43;72.12
22582;BME280;47125;48.542;9.052;2023-02-19T00:21:10;96543.47;;;11.43;72.24
22582;BME280;47125;48.542;9.052;2023-02-19T00:41:34;96540.78;;;11.43;72.41
22582;BME280;47125;48.542;9.052;2023-02-19T00:51:37;96537.66;;;11.46;72.16
22582;BME280;47125;48.542;9.052;2023-02-19T01:01:45;96550.44;;;11.44;72.49
22582;BME280;47125;48.542;9.052;2023-02-19T01:11:47;96542.75;;;11.48;72.12
22582;BME280;47125;48.542;9.052;2023-02-19T01:21:51;96534.41;;;11.44;72.33
22582;BME280;47125;48.542;9.052;2023-02-19T01:31:54;96524.03;;;11.48;72.63
22582;BME280;47125;48.542;9.052;2023-02-19T01:42:02;96524.28;;;11.46;72.36
22582;BME280;47125;48.542;9.052;2023-02-19T01:52:14;96501.13;;;11.40;72.76
22582;BME280;47125;48.542;9.052;2023-02-19T02:02:20;96498.09;;;11.37;72.11
22582;BME280;47125;48.542;9.052;2023-02-19T02:12:22;96515.50;;;11.28;72.00
22582;BME280;47125;48.542;9.052;2023-02-19T02:22:27;96503.22;;;11.38;71.22
22582;BME280;47125;48.542;9.052;2023-02-19T02:32:41;96503.78;;;11.29;71.61
22582;BME280;47125;48.542;9.052;2023-02-19T02:53:13;96480.16;;;11.14;72.13
22582;BME280;47125;48.542;9.052;2023-02-19T03:03:35;96471.88;;;11.04;72.17
22582;BME280;47125;48.542;9.052;2023-02-19T03:13:41;96451.16;;;10.99;71.97
22582;BME280;47125;48.542;9.052;2023-02-19T03:24:02;96458.09;;;10.89;72.40
22582;BME280;47125;48.542;9.052;2023-02-19T03:34:24;96463.69;;;10.87;72.39
22582;BME280;47125;48.542;9.052;2023-02-19T03:54:48;96465.44;;;10.64;73.05
22582;BME280;47125;48.542;9.052;2023-02-19T04:04:55;96473.69;;;10.62;73.18
22582;BME280;47125;48.542;9.052;2023-02-19T04:25:26;96481.84;;;10.49;74.52
22582;BME280;47125;48.542;9.052;2023-02-19T04:35:30;96490.47;;;10.51;74.72
22582;BME280;47125;48.542;9.052;2023-02-19T04:45:38;96506.50;;;10.51;75.04
22582;BME280;47125;48.542;9.052;2023-02-19T04:55:41;96511.97;;;10.38;75.80
22582;BME280;47125;48.542;9.052;2023-02-19T05:05:45;96522.88;;;10.36;76.32
22582;BME280;47125;48.542;9.052;2023-02-19T05:15:55;96520.13;;;10.43;76.18
22582;BME280;47125;48.542;9.052;2023-02-19T05:25:59;96534.22;;;10.32;76.40
22582;BME280;47125;48.542;9.052;2023-02-19T05:36:09;96544.16;;;10.25;76.91
22582;BME280;47125;48.542;9.052;2023-02-19T05:46:13;96544.91;;;10.32;76.79
22582;BME280;47125;48.542;9.052;2023-02-19T06:06:35;96571.91;;;10.24;75.66
22582;BME280;47125;48.542;9.052;2023-02-19T06:16:38;96579.97;;;10.17;75.72
22582;BME280;47125;48.542;9.052;2023-02-19T06:26:42;96592.72;;;10.15;75.69
22582;BME280;47125;48.542;9.052;2023-02-19T06:36:44;96606.22;;;10.20;74.81
22582;BME280;47125;48.542;9.052;2023-02-19T06:46:49;96639.28;;;10.19;74.69
22582;BME280;47125;48.542;9.052;2023-02-19T06:56:51;96655.91;;;10.21;74.65
22582;BME280;47125;48.542;9.052;2023-02-19T07:06:55;96672.31;;;9.93;74.36
22582;BME280;47125;48.542;9.052;2023-02-19T07:16:58;96682.31;;;9.98;74.37
22582;BME280;47125;48.542;9.052;2023-02-19T07:27:02;96700.69;;;10.13;73.10
22582;BME280;47125;48.542;9.052;2023-02-19T07:37:04;96707.31;;;10.04;71.20
22582;BME280;47125;48.542;9.052;2023-02-19T07:47:08;96703.28;;;9.94;70.98
22582;BME280;47125;48.542;9.052;2023-02-19T07:57:11;96715.13;;;10.05;69.63
22582;BME280;47125;48.542;9.052;2023-02-19T08:07:16;96713.84;;;10.14;69.36
22582;BME280;47125;48.542;9.052;2023-02-19T08:17:18;96718.81;;;10.04;70.37
22582;BME280;47125;48.542;9.052;2023-02-19T08:27:22;96729.59;;;9.91;74.20
22582;BME280;47125;48.542;9.052;2023-02-19T08:37:29;96738.97;;;10.00;72.67
22582;BME280;47125;48.542;9.052;2023-02-19T08:57:50;96769.34;;;9.99;71.72
22582;BME280;47125;48.542;9.052;2023-02-19T09:07:53;96765.16;;;10.10;70.91
22582;BME280;47125;48.542;9.052;2023-02-19T09:17:57;96785.13;;;10.01;71.39
22582;BME280;47125;48.542;9.052;2023-02-19T09:28:00;96806.00;;;10.10;72.83
22582;BME280;47125;48.542;9.052;2023-02-19T09:38:03;96817.19;;;9.94;74.24
22582;BME280;47125;48.542;9.052;2023-02-19T09:48:15;96833.50;;;10.24;74.12
22582;BME280;47125;48.542;9.052;2023-02-19T09:58:21;96850.53;;;10.23;72.12
22582;BME280;47125;48.542;9.052;2023-02-19T10:08:29;96849.75;;;10.16;68.70
22582;BME280;47125;48.542;9.052;2023-02-19T10:18:42;96862.66;;;10.19;69.32
22582;BME280;47125;48.542;9.052;2023-02-19T10:28:45;96875.81;;;10.20;69.86
22582;BME280;47125;48.542;9.052;2023-02-19T10:38:49;96860.63;;;10.08;74.36
22582;BME280;47125;48.542;9.052;2023-02-19T10:48:52;96877.25;;;10.16;72.34
22582;BME280;47125;48.542;9.052;2023-02-19T10:58:57;96891.56;;;10.28;71.90
22582;BME280;47125;48.542;9.052;2023-02-19T11:09:21;96886.88;;;10.30;71.56
22582;BME280;47125;48.542;9.052;2023-02-19T11:19:30;96885.03;;;10.24;67.39
22582;BME280;47125;48.542;9.052;2023-02-19T11:29:39;96864.41;;;10.38;66.24
22582;BME280;47125;48.542;9.052;2023-02-19T11:39:43;96860.63;;;10.52;64.00
22582;BME280;47125;48.542;9.052;2023-02-19T11:49:47;96854.16;;;10.35;61.73
22582;BME280;47125;48.542;9.052;2023-02-19T11:59:58;96864.72;;;10.55;61.01
22582;BME280;47125;48.542;9.052;2023-02-19T12:10:06;96874.53;;;10.61;59.89
22582;BME280;47125;48.542;9.052;2023-02-19T12:20:17;96896.25;;;10.71;59.82
22582;BME280;47125;48.542;9.052;2023-02-19T12:30:26;96907.41;;;10.61;59.92
22582;BME280;47125;48.542;9.052;2023-02-19T12:40:37;96875.69;;;10.40;62.77
22582;BME280;47125;48.542;9.052;2023-02-19T12:50:39;96861.59;;;10.58;62.38
22582;BME280;47125;48.542;9.052;2023-02-19T13:21:20;96819.41;;;12.25;58.14
22582;BME280;47125;48.542;9.052;2023-02-19T13:31:46;96824.34;;;12.09;56.50
22582;BME280;47125;48.542;9.052;2023-02-19T13:41:54;96846.00;;;11.72;56.25
22582;BME280;47125;48.542;9.052;2023-02-19T13:51:58;96839.44;;;11.49;56.69
22582;BME280;47125;48.542;9.052;2023-02-19T14:02:08;96833.50;;;11.29;57.34
22582;BME280;47125;48.542;9.052;2023-02-19T14:12:18;96821.97;;;11.29;57.87
22582;BME280;47125;48.542;9.052;2023-02-19T14:32:43;96863.81;;;10.67;61.81
22582;BME280;47125;48.542;9.052;2023-02-19T14:42:51;96867.13;;;10.31;64.68
22582;BME280;47125;48.542;9.052;2023-02-19T14:52:59;96864.69;;;10.30;64.46
22582;BME280;47125;48.542;9.052;2023-02-19T15:03:04;96864.63;;;10.36;65.02
22582;BME280;47125;48.542;9.052;2023-02-19T15:13:09;96891.97;;;10.32;64.72
22582;BME280;47125;48.542;9.052;2023-02-19T15:23:18;96887.47;;;10.26;65.34
22582;BME280;47125;48.542;9.052;2023-02-19T15:33:23;96897.75;;;10.29;66.36
22582;BME280;47125;48.542;9.052;2023-02-19T15:43:28;96916.69;;;10.21;66.44
22582;BME280;47125;48.542;9.052;2023-02-19T15:53:39;96916.69;;;10.14;66.68
22582;BME280;47125;48.542;9.052;2023-02-19T16:03:42;96924.88;;;10.19;66.93
22582;BME280;47125;48.542;9.052;2023-02-19T16:13:50;96913.19;;;10.20;67.19
22582;BME280;47125;48.542;9.052;2023-02-19T16:23:55;96930.22;;;10.13;68.44
22582;BME280;47125;48.542;9.052;2023-02-19T16:34:15;96945.47;;;9.92;71.37
22582;BME280;47125;48.542;9.052;2023-02-19T16:44:28;96937.88;;;9.89;73.44
22582;BME280;47125;48.542;9.052;2023-02-19T16:54:33;96937.06;;;9.82;73.44
22582;BME280;47125;48.542;9.052;2023-02-19T17:04:35;96930.72;;;9.83;72.60
22582;BME280;47125;48.542;9.052;2023-02-19T17:14:39;96935.22;;;9.89;71.73
22582;BME280;47125;48.542;9.052;2023-02-19T17:24:42;96951.88;;;9.78;70.49
22582;BME280;47125;48.542;9.052;2023-02-19T17:34:47;96958.81;;;9.86;69.54
22582;BME280;47125;48.542;9.052;2023-02-19T17:44:50;96980.00;;;9.68;73.81
22582;BME280;47125;48.542;9.052;2023-02-19T17:54:54;96990.28;;;9.51;76.01
22582;BME280;47125;48.542;9.052;2023-02-19T18:04:57;96998.28;;;9.45;76.77
22582;BME280;47125;48.542;9.052;2023-02-19T18:15:01;97021.44;;;9.31;76.43
22582;BME280;47125;48.542;9.052;2023-02-19T18:25:04;97046.88;;;9.33;76.29
22582;BME280;47125;48.542;9.052;2023-02-19T18:35:08;97056.91;;;9.31;76.72
22582;BME280;47125;48.542;9.052;2023-02-19T18:45:10;97060.78;;;9.29;76.33
22582;BME280;47125;48.542;9.052;2023-02-19T18:55:14;97051.81;;;9.36;76.29
22582;BME280;47125;48.542;9.052;2023-02-19T19:05:17;97047.69;;;9.34;75.83
22582;BME280;47125;48.542;9.052;2023-02-19T19:15:24;97057.97;;;9.37;75.70
22582;BME280;47125;48.542;9.052;2023-02-19T19:25:26;97065.16;;;9.43;75.45
22582;BME280;47125;48.542;9.052;2023-02-19T19:35:30;97088.91;;;9.38;75.30
22582;BME280;47125;48.542;9.052;2023-02-19T19:45:33;97093.03;;;9.47;74.60
22582;BME280;47125;48.542;9.052;2023-02-19T19:55:36;97093.66;;;9.43;73.36
22582;BME280;47125;48.542;9.052;2023-02-19T20:05:39;97107.81;;;9.43;73.23
22582;BME280;47125;48.542;9.052;2023-02-19T20:15:43;97100.59;;;9.30;73.77
22582;BME280;47125;48.542;9.052;2023-02-19T20:25:46;97097.69;;;9.19;74.42
22582;BME280;47125;48.542;9.052;2023-02-19T20:35:50;97087.22;;;9.17;74.64
22582;BME280;47125;48.542;9.052;2023-02-19T20:45:53;97099.31;;;9.07;76.03
22582;BME280;47125;48.542;9.052;2023-02-19T20:55:57;97101.50;;;8.97;77.11
22582;BME280;47125;48.542;9.052;2023-02-19T21:05:59;97113.03;;;9.10;76.68
22582;BME280;47125;48.542;9.052;2023-02-19T21:16:04;97106.91;;;9.10;76.56
22582;BME280;47125;48.542;9.052;2023-02-19T21:26:06;97103.41;;;9.09;76.71
22582;BME280;47125;48.542;9.052;2023-02-19T21:36:10;97109.97;;;9.07;77.21
22582;BME280;47125;48.542;9.052;2023-02-19T21:46:16;97113.63;;;9.06;77.55
22582;BME280;47125;48.542;9.052;2023-02-19T21:56:21;97097.88;;;9.04;77.27
22582;BME280;47125;48.542;9.052;2023-02-19T22:06:24;97077.34;;;8.98;76.99
22582;BME280;47125;48.542;9.052;2023-02-19T22:16:30;97083.72;;;9.04;76.39
22582;BME280;47125;48.542;9.052;2023-02-19T22:26:35;97107.69;;;9.10;76.38
22582;BME280;47125;48.542;9.052;2023-02-19T22:36:39;97114.91;;;9.10;76.76
22582;BME280;47125;48.542;9.052;2023-02-19T22:46:44;97130.63;;;8.98;77.47
22582;BME280;47125;48.542;9.052;2023-02-19T22:56:48;97129.00;;;9.04;77.18
22582;BME280;47125;48.542;9.052;2023-02-19T23:06:51;97118.50;;;8.96;77.40
22582;BME280;47125;48.542;9.052;2023-02-19T23:16:55;97133.84;;;8.87;77.43
22582;BME280;47125;48.542;9.052;2023-02-19T23:26:58;97137.81;;;8.98;76.92
22582;BME280;47125;48.542;9.052;2023-02-19T23:37:04;97149.88;;;8.94;76.56
22582;BME280;47125;48.542;9.052;2023-02-19T23:47:07;97138.38;;;8.93;75.96
22582;BME280;47125;48.542;9.052;2023-02-19T23:57:11;97138.00;;;8.96;75.95
